sensor_id;sensor_type;location;lat;lon;timestamp;temperature;humidity
57833;DHT22;43667;53.036;6.740;2023-04-02T00:01:49;4.20;99.90
57833;DHT22;43667;53.036;6.740;2023-04-02T00:04:20;4.20;99.90
57833;DHT22;43667;53.036;6.740;2023-04-02T00:09:39;4.20;99.90
57833;DHT22;43667;53.036;6.740;2023-04-02T00:12:14;4.20;99.90
57833;DHT22;43667;53.036;6.740;2023-04-02T00:14:45;4.20;99.90
57833;DHT22;43667;53.036;6.740;2023-04-02T00:17:13;4.20;99.90
57833;DHT22;43667;53.036;6.740;2023-04-02T00:19:47;4.20;99.90
57833;DHT22;43667;53.036;6.740;2023-04-02T00:22:25;4.20;99.90
57833;DHT22;43667;53.036;6.740;2023-04-02T00:24:53;4.10;99.90
57833;DHT22;43667;53.036;6.740;2023-04-02T00:27:19;4.00;99.90
57833;DHT22;43667;53.036;6.740;2023-04-02T00:29:56;4.00;99.90
57833;DHT22;43667;53.036;6.740;2023-04-02T00:32:29;4.00;99.90
57833;DHT22;43667;53.036;6.740;2023-04-02T00:34:56;3.90;99.90
57833;DHT22;43667;53.036;6.740;2023-04-02T00:37:30;3.90;99.90
57833;DHT22;43667;53.036;6.740;2023-04-02T00:40:27;3.90;99.90
57833;DHT22;43667;53.036;6.740;2023-04-02T00:42:55;3.80;99.90
57833;DHT22;43667;53.036;6.740;2023-04-02T00:45:25;3.80;99.90
57833;DHT22;43667;53.036;6.740;2023-04-02T00:47:53;3.70;99.90
57833;DHT22;43667;53.036;6.740;2023-04-02T00:50:32;3.70;99.90
57833;DHT22;43667;53.036;6.740;2023-04-02T00:53:03;3.50;99.90
57833;DHT22;43667;53.036;6.740;2023-04-02T00:55:35;3.40;99.90
57833;DHT22;43667;53.036;6.740;2023-04-02T00:58:21;3.40;99.90
57833;DHT22;43667;53.036;6.740;2023-04-02T01:00:50;3.30;99.90
57833;DHT22;43667;53.036;6.740;2023-04-02T01:05:46;3.20;99.90
57833;DHT22;43667;53.036;6.740;2023-04-02T01:16:23;2.90;99.90
57833;DHT22;43667;53.036;6.740;2023-04-02T01:19:07;2.90;99.90
57833;DHT22;43667;53.036;6.740;2023-04-02T01:21:50;2.90;99.90
57833;DHT22;43667;53.036;6.740;2023-04-02T01:24:19;2.80;99.90
57833;DHT22;43667;53.036;6.740;2023-04-02T01:26:59;2.70;99.90
57833;DHT22;43667;53.036;6.740;2023-04-02T01:29:32;2.70;99.90
57833;DHT22;43667;53.036;6.740;2023-04-02T01:32:11;2.70;99.90
57833;DHT22;43667;53.036;6.740;2023-04-02T01:34:37;2.70;99.90
57833;DHT22;43667;53.036;6.740;2023-04-02T01:40:09;2.60;99.90
57833;DHT22;43667;53.036;6.740;2023-04-02T01:45:30;2.50;99.90
57833;DHT22;43667;53.036;6.740;2023-04-02T01:47:55;2.50;99.90
57833;DHT22;43667;53.036;6.740;2023-04-02T01:50:26;2.40;99.90
57833;DHT22;43667;53.036;6.740;2023-04-02T01:53:01;2.40;99.90
57833;DHT22;43667;53.036;6.740;2023-04-02T01:55:47;2.40;99.90
57833;DHT22;43667;53.036;6.740;2023-04-02T01:58:16;2.40;99.90
57833;DHT22;43667;53.036;6.740;2023-04-02T02:01:00;2.30;99.90
57833;DHT22;43667;53.036;6.740;2023-04-02T02:03:26;2.30;99.90
57833;DHT22;43667;53.036;6.740;2023-04-02T02:05:52;2.20;99.90
57833;DHT22;43667;53.036;6.740;2023-04-02T02:08:36;2.20;99.90
57833;DHT22;43667;53.036;6.740;2023-04-02T02:11:03;2.20;99.90
57833;DHT22;43667;53.036;6.740;2023-04-02T02:13:30;2.10;99.90
57833;DHT22;43667;53.036;6.740;2023-04-02T02:16:00;2.10;99.90
57833;DHT22;43667;53.036;6.740;2023-04-02T02:18:28;2.10;99.90
57833;DHT22;43667;53.036;6.740;2023-04-02T02:20:56;2.10;99.90
57833;DHT22;43667;53.036;6.740;2023-04-02T02:23:22;2.00;99.90
57833;DHT22;43667;53.036;6.740;2023-04-02T02:25:48;2.00;99.90
57833;DHT22;43667;53.036;6.740;2023-04-02T02:28:23;2.00;99.90
57833;DHT22;43667;53.036;6.740;2023-04-02T02:31:11;2.00;99.90
57833;DHT22;43667;53.036;6.740;2023-04-02T02:33:41;2.00;99.90
57833;DHT22;43667;53.036;6.740;2023-04-02T02:36:27;1.90;99.90
57833;DHT22;43667;53.036;6.740;2023-04-02T02:39:12;1.90;99.90
57833;DHT22;43667;53.036;6.740;2023-04-02T02:41:41;1.90;99.90
57833;DHT22;43667;53.036;6.740;2023-04-02T02:46:38;1.80;99.90
57833;DHT22;43667;53.036;6.740;2023-04-02T02:49:06;1.80;99.90
57833;DHT22;43667;53.036;6.740;2023-04-02T02:54:26;1.70;99.90
57833;DHT22;43667;53.036;6.740;2023-04-02T02:56:59;1.70;99.90
57833;DHT22;43667;53.036;6.740;2023-04-02T02:59:27;1.70;99.90
57833;DHT22;43667;53.036;6.740;2023-04-02T03:01:54;1.70;99.90
57833;DHT22;43667;53.036;6.740;2023-04-02T03:04:21;1.60;99.90
57833;DHT22;43667;53.036;6.740;2023-04-02T03:06:51;1.60;99.90
57833;DHT22;43667;53.036;6.740;2023-04-02T03:09:37;1.60;99.90
57833;DHT22;43667;53.036;6.740;2023-04-02T03:12:28;1.60;99.90
57833;DHT22;43667;53.036;6.740;2023-04-02T03:20:16;1.70;99.90
57833;DHT22;43667;53.036;6.740;2023-04-02T03:28:26;1.60;99.90
57833;DHT22;43667;53.036;6.740;2023-04-02T03:31:04;1.60;99.90
57833;DHT22;43667;53.036;6.740;2023-04-02T03:33:51;1.60;99.90
57833;DHT22;43667;53.036;6.740;2023-04-02T03:36:41;1.60;99.90
57833;DHT22;43667;53.036;6.740;2023-04-02T03:39:17;1.60;99.90
57833;DHT22;43667;53.036;6.740;2023-04-02T03:42:13;1.50;99.90
57833;DHT22;43667;53.036;6.740;2023-04-02T03:50:27;1.40;99.90
57833;DHT22;43667;53.036;6.740;2023-04-02T03:52:57;1.40;99.90
57833;DHT22;43667;53.036;6.740;2023-04-02T03:55:26;1.30;99.90
57833;DHT22;43667;53.036;6.740;2023-04-02T03:58:16;1.30;99.90
57833;DHT22;43667;53.036;6.740;2023-04-02T04:00:53;1.30;99.90
57833;DHT22;43667;53.036;6.740;2023-04-02T04:03:41;1.20;99.90
57833;DHT22;43667;53.036;6.740;2023-04-02T04:06:14;1.20;99.90
57833;DHT22;43667;53.036;6.740;2023-04-02T04:09:28;1.20;99.90
57833;DHT22;43667;53.036;6.740;2023-04-02T04:11:35;1.20;99.90
57833;DHT22;43667;53.036;6.740;2023-04-02T04:16:40;1.10;99.90
57833;DHT22;43667;53.036;6.740;2023-04-02T04:19:21;1.10;99.90
57833;DHT22;43667;53.036;6.740;2023-04-02T04:21:50;1.10;99.90
57833;DHT22;43667;53.036;6.740;2023-04-02T04:24:23;1.10;99.90
57833;DHT22;43667;53.036;6.740;2023-04-02T04:27:07;1.10;99.90
57833;DHT22;43667;53.036;6.740;2023-04-02T04:32:28;1.10;99.90
57833;DHT22;43667;53.036;6.740;2023-04-02T04:37:34;1.10;99.90
57833;DHT22;43667;53.036;6.740;2023-04-02T04:40:12;1.10;99.90
57833;DHT22;43667;53.036;6.740;2023-04-02T04:42:42;1.00;99.90
57833;DHT22;43667;53.036;6.740;2023-04-02T04:48:00;1.00;99.90
57833;DHT22;43667;53.036;6.740;2023-04-02T04:50:34;1.00;99.90
57833;DHT22;43667;53.036;6.740;2023-04-02T04:53:13;1.00;99.90
57833;DHT22;43667;53.036;6.740;2023-04-02T04:55:43;1.00;99.90
57833;DHT22;43667;53.036;6.740;2023-04-02T04:58:26;1.00;99.90
57833;DHT22;43667;53.036;6.740;2023-04-02T05:01:09;1.00;99.90
57833;DHT22;43667;53.036;6.740;2023-04-02T05:03:44;1.00;99.90
57833;DHT22;43667;53.036;6.740;2023-04-02T05:06:19;1.00;99.90
57833;DHT22;43667;53.036;6.740;2023-04-02T05:08:50;1.00;99.90
57833;DHT22;43667;53.036;6.740;2023-04-02T05:11:29;1.00;99.90
57833;DHT22;43667;53.036;6.740;2023-04-02T05:14:02;1.00;99.90
57833;DHT22;43667;53.036;6.740;2023-04-02T05:16:37;1.00;99.90
57833;DHT22;43667;53.036;6.740;2023-04-02T05:19:16;1.00;99.90
57833;DHT22;43667;53.036;6.740;2023-04-02T05:24:49;1.10;99.90
57833;DHT22;43667;53.036;6.740;2023-04-02T05:30:05;1.10;99.90
57833;DHT22;43667;53.036;6.740;2023-04-02T05:32:35;1.10;99.90
57833;DHT22;43667;53.036;6.740;2023-04-02T05:35:02;1.10;99.90
57833;DHT22;43667;53.036;6.740;2023-04-02T05:37:31;1.10;99.90
57833;DHT22;43667;53.036;6.740;2023-04-02T05:40:04;1.10;99.90
57833;DHT22;43667;53.036;6.740;2023-04-02T05:42:38;1.10;99.90
57833;DHT22;43667;53.036;6.740;2023-04-02T05:45:28;1.20;99.90
57833;DHT22;43667;53.036;6.740;2023-04-02T05:47:55;1.20;99.90
57833;DHT22;43667;53.036;6.740;2023-04-02T05:50:35;1.20;99.90
57833;DHT22;43667;53.036;6.740;2023-04-02T05:55:54;1.30;99.90
57833;DHT22;43667;53.036;6.740;2023-04-02T05:58:33;1.30;99.90
57833;DHT22;43667;53.036;6.740;2023-04-02T06:01:04;1.40;99.90
57833;DHT22;43667;53.036;6.740;2023-04-02T06:03:37;1.40;99.90
57833;DHT22;43667;53.036;6.740;2023-04-02T06:09:04;1.50;99.90
57833;DHT22;43667;53.036;6.740;2023-04-02T06:11:45;1.50;99.90
57833;DHT22;43667;53.036;6.740;2023-04-02T06:14:13;1.50;99.90
57833;DHT22;43667;53.036;6.740;2023-04-02T06:16:39;1.60;99.90
57833;DHT22;43667;53.036;6.740;2023-04-02T06:19:10;1.70;99.90
57833;DHT22;43667;53.036;6.740;2023-04-02T06:21:45;1.70;99.90
57833;DHT22;43667;53.036;6.740;2023-04-02T06:24:14;1.80;99.90
57833;DHT22;43667;53.036;6.740;2023-04-02T06:26:49;1.90;99.90
57833;DHT22;43667;53.036;6.740;2023-04-02T06:29:40;2.00;99.90
57833;DHT22;43667;53.036;6.740;2023-04-02T06:32:07;2.10;99.90
57833;DHT22;43667;53.036;6.740;2023-04-02T06:34:36;2.20;99.90
57833;DHT22;43667;53.036;6.740;2023-04-02T06:37:30;2.30;99.90
57833;DHT22;43667;53.036;6.740;2023-04-02T06:39:58;2.40;99.90
57833;DHT22;43667;53.036;6.740;2023-04-02T06:42:32;2.50;99.90
57833;DHT22;43667;53.036;6.740;2023-04-02T06:44:58;2.60;99.90
57833;DHT22;43667;53.036;6.740;2023-04-02T06:47:40;2.70;99.90
57833;DHT22;43667;53.036;6.740;2023-04-02T06:50:18;2.80;99.90
57833;DHT22;43667;53.036;6.740;2023-04-02T06:52:50;2.90;99.90
57833;DHT22;43667;53.036;6.740;2023-04-02T06:57:44;3.00;99.90
57833;DHT22;43667;53.036;6.740;2023-04-02T07:00:43;3.10;99.90
57833;DHT22;43667;53.036;6.740;2023-04-02T07:03:18;3.10;99.90
57833;DHT22;43667;53.036;6.740;2023-04-02T07:05:46;3.30;99.90
57833;DHT22;43667;53.036;6.740;2023-04-02T07:08:11;3.30;99.90
57833;DHT22;43667;53.036;6.740;2023-04-02T07:10:37;3.40;99.90
57833;DHT22;43667;53.036;6.740;2023-04-02T07:13:03;3.50;99.90
57833;DHT22;43667;53.036;6.740;2023-04-02T07:15:30;3.50;99.90
57833;DHT22;43667;53.036;6.740;2023-04-02T07:17:57;3.60;99.90
57833;DHT22;43667;53.036;6.740;2023-04-02T07:20:27;3.70;99.90
57833;DHT22;43667;53.036;6.740;2023-04-02T07:22:54;3.80;99.90
57833;DHT22;43667;53.036;6.740;2023-04-02T07:25:20;3.90;99.90
57833;DHT22;43667;53.036;6.740;2023-04-02T07:27:46;3.90;99.90
57833;DHT22;43667;53.036;6.740;2023-04-02T07:30:11;3.90;99.90
57833;DHT22;43667;53.036;6.740;2023-04-02T07:32:37;3.90;99.90
57833;DHT22;43667;53.036;6.740;2023-04-02T07:35:04;3.90;99.90
57833;DHT22;43667;53.036;6.740;2023-04-02T07:37:30;4.10;99.90
57833;DHT22;43667;53.036;6.740;2023-04-02T07:39:56;4.10;99.90
57833;DHT22;43667;53.036;6.740;2023-04-02T07:42:21;4.20;99.90
57833;DHT22;43667;53.036;6.740;2023-04-02T07:44:47;4.40;99.90
57833;DHT22;43667;53.036;6.740;2023-04-02T07:47:13;4.50;99.90
57833;DHT22;43667;53.036;6.740;2023-04-02T07:49:38;4.60;99.90
57833;DHT22;43667;53.036;6.740;2023-04-02T07:52:04;4.60;99.90
57833;DHT22;43667;53.036;6.740;2023-04-02T07:54:30;4.40;99.90
57833;DHT22;43667;53.036;6.740;2023-04-02T07:56:56;4.40;99.90
57833;DHT22;43667;53.036;6.740;2023-04-02T07:59:21;4.40;99.90
57833;DHT22;43667;53.036;6.740;2023-04-02T08:01:47;4.40;99.90
57833;DHT22;43667;53.036;6.740;2023-04-02T08:04:17;4.40;99.90
57833;DHT22;43667;53.036;6.740;2023-04-02T08:06:43;4.50;99.90
57833;DHT22;43667;53.036;6.740;2023-04-02T08:09:09;4.60;99.90
57833;DHT22;43667;53.036;6.740;2023-04-02T08:11:35;4.80;99.90
57833;DHT22;43667;53.036;6.740;2023-04-02T08:14:00;4.80;99.90
57833;DHT22;43667;53.036;6.740;2023-04-02T08:16:26;4.80;99.90
57833;DHT22;43667;53.036;6.740;2023-04-02T08:18:52;4.80;99.90
57833;DHT22;43667;53.036;6.740;2023-04-02T08:21:17;4.70;99.90
57833;DHT22;43667;53.036;6.740;2023-04-02T08:23:43;4.60;99.90
57833;DHT22;43667;53.036;6.740;2023-04-02T08:26:09;4.60;99.90
57833;DHT22;43667;53.036;6.740;2023-04-02T08:28:35;4.70;99.90
57833;DHT22;43667;53.036;6.740;2023-04-02T08:31:01;5.00;99.90
57833;DHT22;43667;53.036;6.740;2023-04-02T08:33:26;5.10;99.90
57833;DHT22;43667;53.036;6.740;2023-04-02T08:35:52;5.10;99.90
57833;DHT22;43667;53.036;6.740;2023-04-02T08:38:20;5.10;99.90
57833;DHT22;43667;53.036;6.740;2023-04-02T08:40:48;5.30;99.90
57833;DHT22;43667;53.036;6.740;2023-04-02T08:48:36;6.00;99.90
57833;DHT22;43667;53.036;6.740;2023-04-02T08:51:04;6.20;99.90
57833;DHT22;43667;53.036;6.740;2023-04-02T08:53:34;6.50;99.90
57833;DHT22;43667;53.036;6.740;2023-04-02T08:56:24;6.60;99.90
57833;DHT22;43667;53.036;6.740;2023-04-02T08:59:02;6.70;99.90
57833;DHT22;43667;53.036;6.740;2023-04-02T09:01:43;6.60;99.90
57833;DHT22;43667;53.036;6.740;2023-04-02T09:04:19;6.80;99.90
57833;DHT22;43667;53.036;6.740;2023-04-02T09:06:46;6.80;99.90
57833;DHT22;43667;53.036;6.740;2023-04-02T09:09:13;6.70;99.90
57833;DHT22;43667;53.036;6.740;2023-04-02T09:14:28;6.90;99.90
57833;DHT22;43667;53.036;6.740;2023-04-02T09:17:01;7.00;99.90
57833;DHT22;43667;53.036;6.740;2023-04-02T09:19:37;7.10;99.90
57833;DHT22;43667;53.036;6.740;2023-04-02T09:24:38;7.30;99.90
57833;DHT22;43667;53.036;6.740;2023-04-02T09:27:31;7.30;99.90
57833;DHT22;43667;53.036;6.740;2023-04-02T09:32:49;7.50;99.90
57833;DHT22;43667;53.036;6.740;2023-04-02T09:35:17;7.60;99.90
57833;DHT22;43667;53.036;6.740;2023-04-02T09:37:44;7.50;99.90
57833;DHT22;43667;53.036;6.740;2023-04-02T09:42:42;7.30;99.90
57833;DHT22;43667;53.036;6.740;2023-04-02T09:45:20;7.30;99.90
57833;DHT22;43667;53.036;6.740;2023-04-02T09:47:48;7.40;99.90
57833;DHT22;43667;53.036;6.740;2023-04-02T09:52:46;7.50;99.90
57833;DHT22;43667;53.036;6.740;2023-04-02T09:55:21;7.70;99.90
57833;DHT22;43667;53.036;6.740;2023-04-02T09:57:50;7.80;99.90
57833;DHT22;43667;53.036;6.740;2023-04-02T10:00:30;8.00;99.90
57833;DHT22;43667;53.036;6.740;2023-04-02T10:05:26;8.30;99.90
57833;DHT22;43667;53.036;6.740;2023-04-02T10:07:53;8.40;99.90
57833;DHT22;43667;53.036;6.740;2023-04-02T10:10:28;8.50;99.90
57833;DHT22;43667;53.036;6.740;2023-04-02T10:13:22;8.40;98.50
57833;DHT22;43667;53.036;6.740;2023-04-02T10:16:09;8.50;99.90
57833;DHT22;43667;53.036;6.740;2023-04-02T10:18:57;8.30;96.80
57833;DHT22;43667;53.036;6.740;2023-04-02T10:21:42;8.20;99.60
57833;DHT22;43667;53.036;6.740;2023-04-02T10:24:13;8.10;99.90
57833;DHT22;43667;53.036;6.740;2023-04-02T10:29:47;8.00;99.90
57833;DHT22;43667;53.036;6.740;2023-04-02T10:48:21;8.60;99.50
57833;DHT22;43667;53.036;6.740;2023-04-02T10:53:37;8.70;98.70
57833;DHT22;43667;53.036;6.740;2023-04-02T10:56:09;8.80;99.90
57833;DHT22;43667;53.036;6.740;2023-04-02T10:58:44;8.90;99.90
57833;DHT22;43667;53.036;6.740;2023-04-02T11:01:17;9.10;99.90
57833;DHT22;43667;53.036;6.740;2023-04-02T11:03:45;9.30;99.90
57833;DHT22;43667;53.036;6.740;2023-04-02T11:06:24;9.50;99.50
57833;DHT22;43667;53.036;6.740;2023-04-02T11:08:54;9.60;96.90
57833;DHT22;43667;53.036;6.740;2023-04-02T11:11:26;9.70;98.70
57833;DHT22;43667;53.036;6.740;2023-04-02T11:14:21;9.70;95.70
57833;DHT22;43667;53.036;6.740;2023-04-02T11:16:49;9.60;98.60
57833;DHT22;43667;53.036;6.740;2023-04-02T11:22:01;9.20;97.80
57833;DHT22;43667;53.036;6.740;2023-04-02T11:24:34;9.10;96.70
57833;DHT22;43667;53.036;6.740;2023-04-02T11:29:44;9.40;94.50
57833;DHT22;43667;53.036;6.740;2023-04-02T11:37:40;9.50;92.30
57833;DHT22;43667;53.036;6.740;2023-04-02T11:42:40;10.10;94.40
57833;DHT22;43667;53.036;6.740;2023-04-02T11:53:27;11.00;88.10
57833;DHT22;43667;53.036;6.740;2023-04-02T11:58:37;11.20;87.40
57833;DHT22;43667;53.036;6.740;2023-04-02T12:01:38;11.30;90.10
57833;DHT22;43667;53.036;6.740;2023-04-02T12:09:23;10.30;92.40
57833;DHT22;43667;53.036;6.740;2023-04-02T12:11:53;10.50;91.10
57833;DHT22;43667;53.036;6.740;2023-04-02T12:14:44;10.50;93.10
57833;DHT22;43667;53.036;6.740;2023-04-02T12:17:24;10.50;94.30
57833;DHT22;43667;53.036;6.740;2023-04-02T12:20:03;10.30;91.80
57833;DHT22;43667;53.036;6.740;2023-04-02T12:22:52;10.30;94.30
57833;DHT22;43667;53.036;6.740;2023-04-02T12:25:32;10.30;92.90
57833;DHT22;43667;53.036;6.740;2023-04-02T12:28:17;10.00;90.10
57833;DHT22;43667;53.036;6.740;2023-04-02T12:30:45;10.00;91.60
57833;DHT22;43667;53.036;6.740;2023-04-02T12:33:31;10.00;93.80
57833;DHT22;43667;53.036;6.740;2023-04-02T12:36:03;10.00;83.80
57833;DHT22;43667;53.036;6.740;2023-04-02T12:38:31;10.00;90.60
57833;DHT22;43667;53.036;6.740;2023-04-02T12:41:03;10.20;90.10
57833;DHT22;43667;53.036;6.740;2023-04-02T12:43:34;10.20;87.70
57833;DHT22;43667;53.036;6.740;2023-04-02T12:46:07;10.40;90.50
57833;DHT22;43667;53.036;6.740;2023-04-02T12:48:33;10.60;90.30
57833;DHT22;43667;53.036;6.740;2023-04-02T12:51:00;10.70;90.60
57833;DHT22;43667;53.036;6.740;2023-04-02T12:53:39;10.90;90.70
57833;DHT22;43667;53.036;6.740;2023-04-02T12:56:06;10.80;82.00
57833;DHT22;43667;53.036;6.740;2023-04-02T12:58:40;10.50;87.70
57833;DHT22;43667;53.036;6.740;2023-04-02T13:01:21;10.50;90.30
57833;DHT22;43667;53.036;6.740;2023-04-02T13:04:02;10.60;89.20
57833;DHT22;43667;53.036;6.740;2023-04-02T13:06:29;10.90;80.70
57833;DHT22;43667;53.036;6.740;2023-04-02T13:08:56;11.00;84.80
57833;DHT22;43667;53.036;6.740;2023-04-02T13:11:24;10.90;84.90
57833;DHT22;43667;53.036;6.740;2023-04-02T13:14:00;10.80;83.90
57833;DHT22;43667;53.036;6.740;2023-04-02T13:16:32;10.70;82.20
57833;DHT22;43667;53.036;6.740;2023-04-02T13:19:20;10.70;83.40
57833;DHT22;43667;53.036;6.740;2023-04-02T13:21:47;10.60;72.90
57833;DHT22;43667;53.036;6.740;2023-04-02T13:24:21;10.30;78.90
57833;DHT22;43667;53.036;6.740;2023-04-02T13:26:48;10.30;79.70
57833;DHT22;43667;53.036;6.740;2023-04-02T13:29:25;10.50;82.00
57833;DHT22;43667;53.036;6.740;2023-04-02T13:31:53;10.40;74.30
57833;DHT22;43667;53.036;6.740;2023-04-02T13:34:20;10.20;79.90
57833;DHT22;43667;53.036;6.740;2023-04-02T13:36:46;10.20;83.00
57833;DHT22;43667;53.036;6.740;2023-04-02T13:39:11;10.30;81.20
57833;DHT22;43667;53.036;6.740;2023-04-02T13:41:49;10.40;81.80
57833;DHT22;43667;53.036;6.740;2023-04-02T13:44:26;10.60;76.60
57833;DHT22;43667;53.036;6.740;2023-04-02T13:46:54;10.60;75.20
57833;DHT22;43667;53.036;6.740;2023-04-02T13:49:20;10.70;81.40
57833;DHT22;43667;53.036;6.740;2023-04-02T13:51:49;10.70;78.30
57833;DHT22;43667;53.036;6.740;2023-04-02T13:54:42;10.70;73.60
57833;DHT22;43667;53.036;6.740;2023-04-02T13:57:09;10.70;74.40
57833;DHT22;43667;53.036;6.740;2023-04-02T13:59:35;10.90;75.40
57833;DHT22;43667;53.036;6.740;2023-04-02T14:02:08;10.90;76.10
57833;DHT22;43667;53.036;6.740;2023-04-02T14:04:40;10.90;70.80
57833;DHT22;43667;53.036;6.740;2023-04-02T14:09:54;10.70;72.70
57833;DHT22;43667;53.036;6.740;2023-04-02T14:21:21;10.90;74.20
57833;DHT22;43667;53.036;6.740;2023-04-02T14:24:15;11.00;75.40
57833;DHT22;43667;53.036;6.740;2023-04-02T14:29:15;10.80;79.20
57833;DHT22;43667;53.036;6.740;2023-04-02T14:31:52;10.70;78.40
57833;DHT22;43667;53.036;6.740;2023-04-02T14:35:10;10.80;80.60
57833;DHT22;43667;53.036;6.740;2023-04-02T14:40:51;10.90;81.50
57833;DHT22;43667;53.036;6.740;2023-04-02T14:43:14;10.70;77.50
57833;DHT22;43667;53.036;6.740;2023-04-02T14:46:03;10.70;79.90
57833;DHT22;43667;53.036;6.740;2023-04-02T14:54:33;10.90;79.90
57833;DHT22;43667;53.036;6.740;2023-04-02T14:57:09;10.90;78.10
57833;DHT22;43667;53.036;6.740;2023-04-02T15:02:18;11.10;79.10
57833;DHT22;43667;53.036;6.740;2023-04-02T15:04:56;11.10;75.90
57833;DHT22;43667;53.036;6.740;2023-04-02T15:07:30;11.20;75.30
57833;DHT22;43667;53.036;6.740;2023-04-02T15:10:13;11.20;75.60
57833;DHT22;43667;53.036;6.740;2023-04-02T15:12:41;11.20;72.40
57833;DHT22;43667;53.036;6.740;2023-04-02T15:18:19;11.40;68.10
57833;DHT22;43667;53.036;6.740;2023-04-02T15:28:53;12.30;67.20
57833;DHT22;43667;53.036;6.740;2023-04-02T15:31:25;12.50;63.30
57833;DHT22;43667;53.036;6.740;2023-04-02T15:34:06;12.50;66.10
57833;DHT22;43667;53.036;6.740;2023-04-02T15:37:00;12.50;65.00
57833;DHT22;43667;53.036;6.740;2023-04-02T15:39:41;12.70;64.30
57833;DHT22;43667;53.036;6.740;2023-04-02T15:42:29;12.90;60.40
57833;DHT22;43667;53.036;6.740;2023-04-02T15:47:43;12.50;61.30
57833;DHT22;43667;53.036;6.740;2023-04-02T15:50:20;12.50;64.30
57833;DHT22;43667;53.036;6.740;2023-04-02T15:55:37;12.80;59.40
57833;DHT22;43667;53.036;6.740;2023-04-02T16:04:17;13.10;57.70
57833;DHT22;43667;53.036;6.740;2023-04-02T16:07:11;13.10;57.00
57833;DHT22;43667;53.036;6.740;2023-04-02T16:12:15;12.90;59.10
57833;DHT22;43667;53.036;6.740;2023-04-02T16:14:44;12.60;58.90
57833;DHT22;43667;53.036;6.740;2023-04-02T16:17:38;12.30;58.70
57833;DHT22;43667;53.036;6.740;2023-04-02T16:23:19;11.60;58.70
57833;DHT22;43667;53.036;6.740;2023-04-02T16:26:07;11.30;62.80
57833;DHT22;43667;53.036;6.740;2023-04-02T16:34:34;10.70;64.40
57833;DHT22;43667;53.036;6.740;2023-04-02T16:40:40;10.20;64.90
57833;DHT22;43667;53.036;6.740;2023-04-02T16:46:02;9.60;68.10
57833;DHT22;43667;53.036;6.740;2023-04-02T16:56:32;8.90;69.80
57833;DHT22;43667;53.036;6.740;2023-04-02T17:04:43;8.60;72.80
57833;DHT22;43667;53.036;6.740;2023-04-02T17:09:53;8.50;75.90
57833;DHT22;43667;53.036;6.740;2023-04-02T17:12:43;8.40;76.00
57833;DHT22;43667;53.036;6.740;2023-04-02T17:15:36;8.40;75.30
57833;DHT22;43667;53.036;6.740;2023-04-02T17:18:15;8.30;73.10
57833;DHT22;43667;53.036;6.740;2023-04-02T17:20:41;8.20;78.20
57833;DHT22;43667;53.036;6.740;2023-04-02T17:23:11;8.10;81.20
57833;DHT22;43667;53.036;6.740;2023-04-02T17:25:48;8.10;78.50
57833;DHT22;43667;53.036;6.740;2023-04-02T17:28:17;8.00;79.00
57833;DHT22;43667;53.036;6.740;2023-04-02T17:30:52;8.00;81.10
57833;DHT22;43667;53.036;6.740;2023-04-02T17:33:18;7.90;81.60
57833;DHT22;43667;53.036;6.740;2023-04-02T17:36:08;7.80;81.50
57833;DHT22;43667;53.036;6.740;2023-04-02T17:38:56;7.80;82.30
57833;DHT22;43667;53.036;6.740;2023-04-02T17:52:58;7.40;84.40
57833;DHT22;43667;53.036;6.740;2023-04-02T17:56:02;7.30;81.50
57833;DHT22;43667;53.036;6.740;2023-04-02T18:02:01;7.20;87.70
57833;DHT22;43667;53.036;6.740;2023-04-02T18:07:28;7.10;87.60
57833;DHT22;43667;53.036;6.740;2023-04-02T18:10:22;7.00;90.40
57833;DHT22;43667;53.036;6.740;2023-04-02T18:13:01;6.90;90.80
57833;DHT22;43667;53.036;6.740;2023-04-02T18:26:51;6.60;94.60
57833;DHT22;43667;53.036;6.740;2023-04-02T18:35:14;6.30;94.80
57833;DHT22;43667;53.036;6.740;2023-04-02T18:46:33;6.10;94.30
57833;DHT22;43667;53.036;6.740;2023-04-02T18:49:19;6.00;96.60
57833;DHT22;43667;53.036;6.740;2023-04-02T18:51:51;6.00;95.90
57833;DHT22;43667;53.036;6.740;2023-04-02T18:54:35;5.90;96.40
57833;DHT22;43667;53.036;6.740;2023-04-02T19:00:02;5.80;97.60
57833;DHT22;43667;53.036;6.740;2023-04-02T19:02:39;5.70;98.00
57833;DHT22;43667;53.036;6.740;2023-04-02T19:05:19;5.70;98.80
57833;DHT22;43667;53.036;6.740;2023-04-02T19:07:48;5.60;99.20
57833;DHT22;43667;53.036;6.740;2023-04-02T19:10:30;5.50;99.60
57833;DHT22;43667;53.036;6.740;2023-04-02T19:12:56;5.50;99.80
57833;DHT22;43667;53.036;6.740;2023-04-02T19:15:37;5.40;99.90
57833;DHT22;43667;53.036;6.740;2023-04-02T19:20:56;5.30;99.90
57833;DHT22;43667;53.036;6.740;2023-04-02T19:26:13;5.20;99.90
57833;DHT22;43667;53.036;6.740;2023-04-02T19:28:50;5.20;99.90
57833;DHT22;43667;53.036;6.740;2023-04-02T19:31:53;5.20;99.90
57833;DHT22;43667;53.036;6.740;2023-04-02T19:37:09;5.10;99.90
57833;DHT22;43667;53.036;6.740;2023-04-02T19:42:44;5.00;99.90
57833;DHT22;43667;53.036;6.740;2023-04-02T19:45:22;5.00;99.90
57833;DHT22;43667;53.036;6.740;2023-04-02T19:47:49;4.90;99.90
57833;DHT22;43667;53.036;6.740;2023-04-02T19:50:15;4.90;99.90
57833;DHT22;43667;53.036;6.740;2023-04-02T19:52:43;4.90;99.90
57833;DHT22;43667;53.036;6.740;2023-04-02T19:55:08;4.90;99.90
57833;DHT22;43667;53.036;6.740;2023-04-02T19:57:34;4.90;99.90
57833;DHT22;43667;53.036;6.740;2023-04-02T20:00:00;4.90;99.90
57833;DHT22;43667;53.036;6.740;2023-04-02T20:02:25;4.90;99.90
57833;DHT22;43667;53.036;6.740;2023-04-02T20:04:51;4.80;99.90
57833;DHT22;43667;53.036;6.740;2023-04-02T20:07:16;4.80;99.90
57833;DHT22;43667;53.036;6.740;2023-04-02T20:09:42;4.80;99.90
57833;DHT22;43667;53.036;6.740;2023-04-02T20:12:07;4.80;99.90
57833;DHT22;43667;53.036;6.740;2023-04-02T20:14:33;4.70;99.90
57833;DHT22;43667;53.036;6.740;2023-04-02T20:16:59;4.70;99.90
57833;DHT22;43667;53.036;6.740;2023-04-02T20:19:25;4.70;99.90
57833;DHT22;43667;53.036;6.740;2023-04-02T20:21:51;4.70;99.90
57833;DHT22;43667;53.036;6.740;2023-04-02T20:24:16;4.60;99.90
57833;DHT22;43667;53.036;6.740;2023-04-02T20:26:42;4.60;99.90
57833;DHT22;43667;53.036;6.740;2023-04-02T20:29:08;4.60;99.90
57833;DHT22;43667;53.036;6.740;2023-04-02T20:31:35;4.50;99.90
57833;DHT22;43667;53.036;6.740;2023-04-02T20:34:00;4.50;99.90
57833;DHT22;43667;53.036;6.740;2023-04-02T20:36:29;4.50;99.90
57833;DHT22;43667;53.036;6.740;2023-04-02T20:38:55;4.50;99.90
57833;DHT22;43667;53.036;6.740;2023-04-02T20:41:21;4.40;99.90
57833;DHT22;43667;53.036;6.740;2023-04-02T20:43:47;4.40;99.90
57833;DHT22;43667;53.036;6.740;2023-04-02T20:46:14;4.40;99.90
57833;DHT22;43667;53.036;6.740;2023-04-02T20:48:40;4.40;99.90
57833;DHT22;43667;53.036;6.740;2023-04-02T20:51:07;4.40;99.90
57833;DHT22;43667;53.036;6.740;2023-04-02T20:53:34;4.40;99.90
57833;DHT22;43667;53.036;6.740;2023-04-02T20:56:06;4.30;99.90
57833;DHT22;43667;53.036;6.740;2023-04-02T20:58:33;4.30;99.90
57833;DHT22;43667;53.036;6.740;2023-04-02T21:01:19;4.30;99.90